Aviation Digital Data Service (ADDS)

Output produced by METARs form (1759 UTC 23 January 2019)
found at http://aviationweather.gov/metar/data/
 
KMLU 231753Z 29011KT 5SM RA BR OVC009 03/02 A3000 RMK AO2 SLP159 P0016 60112 T00330022 10106 20033 50006
KMLU 231723Z 30012KT 5SM RA BR OVC009 03/02 A3000 RMK AO2 P0008 T00330022
KMLU 231716Z 31008KT 5SM RA BR BKN012 BKN018 OVC080 03/02 A3000 RMK AO2 P0007 T00330022
KMLU 231739Z 2318/2418 30012G20KT P6SM OVC015 
     TEMPO 2318/2320 4SM -SNPL BR OVC008 
     FM232000 30012G22KT P6SM OVC025 
     FM232200 30010KT P6SM BKN025 
     FM240000 31005KT P6SM SKC